METAR AND TAF INFORMATION


GMMX 180630Z 20003KT 160V220 9999 BKN100 12/10 Q1018 NOSIG
GMMX 180600Z 22005KT 9999 SCT100 SCT200 12/10 Q1018 NOSIG
TAF GMMX 180500Z 1806/1912 24008KT 8000 SCT100 BECMG 1808/1810 BKN026 FEW030TCU TEMPO 1814/1824 34016KT 5000 SHRA

 AIRPORT MAP

 RUNWAY INFORMATION
Runway 10 Runway length 10170 ft Runway width 148 ft
Runway elevation 1506 ft Runway displaced threshold 918 ft Runway heading 96
Runway 28 Runway length 10170 ft Runway width 148 ft
Runway elevation 1545 ft Runway displaced threshold 0 ft Runway heading 276

 AIRPORT FREQUENCIES
Type APP Name MARRAKECH Frequency 119.7 MHZ
Type TWR Name MARRAKECH Frequency 118.7 MHZ

 AIRPORT NEAR NAVIGATION AIDS
Type NDB Name Marrakech Frequency 267 KHZ
Type VOR-DME Name Marrakech Frequency 113300 KHZ